sensor_id;sensor_type;location;lat;lon;timestamp;temperature;humidity
70708;SHT30;58277;47.316;18.908;2022-09-17T00:02:03;14.85;85.84
70708;SHT30;58277;47.316;18.908;2022-09-17T00:04:28;14.84;86.30
70708;SHT30;58277;47.316;18.908;2022-09-17T00:06:51;14.81;86.31
70708;SHT30;58277;47.316;18.908;2022-09-17T00:09:14;14.84;86.04
70708;SHT30;58277;47.316;18.908;2022-09-17T00:11:39;14.83;85.66
70708;SHT30;58277;47.316;18.908;2022-09-17T00:14:04;14.77;85.76
70708;SHT30;58277;47.316;18.908;2022-09-17T00:16:38;14.78;86.03
70708;SHT30;58277;47.316;18.908;2022-09-17T00:19:03;14.76;86.14
70708;SHT30;58277;47.316;18.908;2022-09-17T00:21:27;14.80;86.70
70708;SHT30;58277;47.316;18.908;2022-09-17T00:23:54;14.78;86.39
70708;SHT30;58277;47.316;18.908;2022-09-17T00:26:16;14.81;85.99
70708;SHT30;58277;47.316;18.908;2022-09-17T00:28:39;14.85;85.90
70708;SHT30;58277;47.316;18.908;2022-09-17T00:31:07;14.84;85.95
70708;SHT30;58277;47.316;18.908;2022-09-17T00:33:30;14.84;85.92
70708;SHT30;58277;47.316;18.908;2022-09-17T00:35:57;14.85;86.15
70708;SHT30;58277;47.316;18.908;2022-09-17T00:38:20;14.87;86.25
70708;SHT30;58277;47.316;18.908;2022-09-17T00:40:43;14.77;86.78
70708;SHT30;58277;47.316;18.908;2022-09-17T00:43:10;14.84;86.76
70708;SHT30;58277;47.316;18.908;2022-09-17T00:45:33;14.78;87.41
70708;SHT30;58277;47.316;18.908;2022-09-17T00:50:47;14.80;85.55
70708;SHT30;58277;47.316;18.908;2022-09-17T00:53:13;14.84;86.18
70708;SHT30;58277;47.316;18.908;2022-09-17T00:55:40;14.81;86.53
70708;SHT30;58277;47.316;18.908;2022-09-17T00:58:06;14.89;86.09
70708;SHT30;58277;47.316;18.908;2022-09-17T01:00:29;14.91;86.10
70708;SHT30;58277;47.316;18.908;2022-09-17T01:02:53;14.89;86.24
70708;SHT30;58277;47.316;18.908;2022-09-17T01:05:15;14.91;86.39
70708;SHT30;58277;47.316;18.908;2022-09-17T01:10:35;14.77;86.09
70708;SHT30;58277;47.316;18.908;2022-09-17T01:13:12;14.81;85.93
70708;SHT30;58277;47.316;18.908;2022-09-17T01:31:35;14.70;86.14
70708;SHT30;58277;47.316;18.908;2022-09-17T01:37:22;14.66;86.47
70708;SHT30;58277;47.316;18.908;2022-09-17T01:39:59;14.67;86.05
70708;SHT30;58277;47.316;18.908;2022-09-17T01:42:32;14.66;85.95
70708;SHT30;58277;47.316;18.908;2022-09-17T01:45:04;14.60;85.60
70708;SHT30;58277;47.316;18.908;2022-09-17T01:50:02;14.43;85.87
70708;SHT30;58277;47.316;18.908;2022-09-17T01:52:27;14.43;85.09
70708;SHT30;58277;47.316;18.908;2022-09-17T01:54:55;14.41;85.73
70708;SHT30;58277;47.316;18.908;2022-09-17T02:00:11;14.39;84.24
70708;SHT30;58277;47.316;18.908;2022-09-17T02:02:59;14.44;84.29
70708;SHT30;58277;47.316;18.908;2022-09-17T02:07:57;14.40;83.97
70708;SHT30;58277;47.316;18.908;2022-09-17T02:10:28;14.34;83.76
70708;SHT30;58277;47.316;18.908;2022-09-17T02:12:55;14.29;84.23
70708;SHT30;58277;47.316;18.908;2022-09-17T02:15:23;14.22;84.11
70708;SHT30;58277;47.316;18.908;2022-09-17T02:17:53;14.28;84.11
70708;SHT30;58277;47.316;18.908;2022-09-17T02:20:17;14.36;84.10
70708;SHT30;58277;47.316;18.908;2022-09-17T02:22:51;14.26;83.69
70708;SHT30;58277;47.316;18.908;2022-09-17T02:28:07;14.32;83.70
70708;SHT30;58277;47.316;18.908;2022-09-17T02:30:32;14.30;83.81
70708;SHT30;58277;47.316;18.908;2022-09-17T02:32:55;14.28;83.58
70708;SHT30;58277;47.316;18.908;2022-09-17T02:35:18;14.28;83.96
70708;SHT30;58277;47.316;18.908;2022-09-17T02:37:43;14.18;83.24
70708;SHT30;58277;47.316;18.908;2022-09-17T02:40:06;14.23;83.38
70708;SHT30;58277;47.316;18.908;2022-09-17T02:42:53;14.18;83.50
70708;SHT30;58277;47.316;18.908;2022-09-17T02:45:36;14.16;82.89
70708;SHT30;58277;47.316;18.908;2022-09-17T02:48:35;14.19;83.35
70708;SHT30;58277;47.316;18.908;2022-09-17T02:51:19;14.18;83.16
70708;SHT30;58277;47.316;18.908;2022-09-17T02:53:59;14.18;82.87
70708;SHT30;58277;47.316;18.908;2022-09-17T02:56:51;14.22;82.88
70708;SHT30;58277;47.316;18.908;2022-09-17T02:59:30;14.11;83.11
70708;SHT30;58277;47.316;18.908;2022-09-17T03:02:06;14.13;82.84
70708;SHT30;58277;47.316;18.908;2022-09-17T03:04:30;14.11;82.86
70708;SHT30;58277;47.316;18.908;2022-09-17T03:06:54;14.08;83.00
70708;SHT30;58277;47.316;18.908;2022-09-17T03:09:17;14.12;82.50
70708;SHT30;58277;47.316;18.908;2022-09-17T03:11:40;14.06;83.09
70708;SHT30;58277;47.316;18.908;2022-09-17T03:14:03;14.06;83.53
70708;SHT30;58277;47.316;18.908;2022-09-17T03:16:25;14.02;83.21
70708;SHT30;58277;47.316;18.908;2022-09-17T03:18:48;13.97;83.25
70708;SHT30;58277;47.316;18.908;2022-09-17T03:21:10;14.01;83.91
70708;SHT30;58277;47.316;18.908;2022-09-17T03:23:34;13.98;82.94
70708;SHT30;58277;47.316;18.908;2022-09-17T03:25:57;13.94;83.12
70708;SHT30;58277;47.316;18.908;2022-09-17T03:28:20;13.92;83.49
70708;SHT30;58277;47.316;18.908;2022-09-17T03:30:44;13.89;83.90
70708;SHT30;58277;47.316;18.908;2022-09-17T03:33:07;13.91;83.62
70708;SHT30;58277;47.316;18.908;2022-09-17T03:35:29;13.91;84.01
70708;SHT30;58277;47.316;18.908;2022-09-17T03:37:52;13.94;83.80
70708;SHT30;58277;47.316;18.908;2022-09-17T03:40:15;13.86;83.70
70708;SHT30;58277;47.316;18.908;2022-09-17T03:42:38;13.86;83.43
70708;SHT30;58277;47.316;18.908;2022-09-17T03:45:01;13.91;83.44
70708;SHT30;58277;47.316;18.908;2022-09-17T03:47:24;13.94;83.77
70708;SHT30;58277;47.316;18.908;2022-09-17T03:49:46;13.92;83.27
70708;SHT30;58277;47.316;18.908;2022-09-17T03:52:09;13.89;83.21
70708;SHT30;58277;47.316;18.908;2022-09-17T03:54:31;13.88;83.40
70708;SHT30;58277;47.316;18.908;2022-09-17T03:56:54;13.85;83.27
70708;SHT30;58277;47.316;18.908;2022-09-17T03:59:16;13.85;82.91
70708;SHT30;58277;47.316;18.908;2022-09-17T04:01:39;13.84;82.68
70708;SHT30;58277;47.316;18.908;2022-09-17T04:04:02;13.81;82.89
70708;SHT30;58277;47.316;18.908;2022-09-17T04:06:25;13.82;83.01
70708;SHT30;58277;47.316;18.908;2022-09-17T04:08:48;13.84;82.03
70708;SHT30;58277;47.316;18.908;2022-09-17T04:11:10;13.82;81.01
70708;SHT30;58277;47.316;18.908;2022-09-17T04:13:33;13.77;81.59
70708;SHT30;58277;47.316;18.908;2022-09-17T04:15:56;13.78;81.45
70708;SHT30;58277;47.316;18.908;2022-09-17T04:18:18;13.84;82.20
70708;SHT30;58277;47.316;18.908;2022-09-17T04:20:41;13.77;80.80
70708;SHT30;58277;47.316;18.908;2022-09-17T04:23:08;13.67;81.42
70708;SHT30;58277;47.316;18.908;2022-09-17T04:25:32;13.75;81.91
70708;SHT30;58277;47.316;18.908;2022-09-17T04:27:55;13.77;81.32
70708;SHT30;58277;47.316;18.908;2022-09-17T04:30:18;13.75;81.47
70708;SHT30;58277;47.316;18.908;2022-09-17T04:32:42;13.78;81.67
70708;SHT30;58277;47.316;18.908;2022-09-17T04:35:05;13.81;80.53
70708;SHT30;58277;47.316;18.908;2022-09-17T04:37:28;13.71;80.84
70708;SHT30;58277;47.316;18.908;2022-09-17T04:39:51;13.75;81.22
70708;SHT30;58277;47.316;18.908;2022-09-17T04:42:14;13.70;81.71
70708;SHT30;58277;47.316;18.908;2022-09-17T04:44:37;13.71;81.61
70708;SHT30;58277;47.316;18.908;2022-09-17T04:46:59;13.71;80.87
70708;SHT30;58277;47.316;18.908;2022-09-17T04:49:22;13.78;81.14
70708;SHT30;58277;47.316;18.908;2022-09-17T04:51:45;13.82;81.02
70708;SHT30;58277;47.316;18.908;2022-09-17T04:54:07;13.79;80.74
70708;SHT30;58277;47.316;18.908;2022-09-17T04:56:30;13.75;81.15
70708;SHT30;58277;47.316;18.908;2022-09-17T04:58:52;13.54;81.10
70708;SHT30;58277;47.316;18.908;2022-09-17T05:01:15;13.57;81.47
70708;SHT30;58277;47.316;18.908;2022-09-17T05:03:40;13.58;81.45
70708;SHT30;58277;47.316;18.908;2022-09-17T05:06:02;13.64;80.23
70708;SHT30;58277;47.316;18.908;2022-09-17T05:08:25;13.73;80.97
70708;SHT30;58277;47.316;18.908;2022-09-17T05:10:49;13.68;80.83
70708;SHT30;58277;47.316;18.908;2022-09-17T05:13:12;13.71;80.46
70708;SHT30;58277;47.316;18.908;2022-09-17T05:15:35;13.71;79.18
70708;SHT30;58277;47.316;18.908;2022-09-17T05:17:57;13.71;80.11
70708;SHT30;58277;47.316;18.908;2022-09-17T05:20:20;13.73;79.62
70708;SHT30;58277;47.316;18.908;2022-09-17T05:22:45;13.82;79.83
70708;SHT30;58277;47.316;18.908;2022-09-17T05:25:08;13.82;80.00
70708;SHT30;58277;47.316;18.908;2022-09-17T05:27:31;13.95;79.03
70708;SHT30;58277;47.316;18.908;2022-09-17T05:29:54;13.89;78.80
70708;SHT30;58277;47.316;18.908;2022-09-17T05:32:17;14.02;78.15
70708;SHT30;58277;47.316;18.908;2022-09-17T05:34:39;13.98;77.74
70708;SHT30;58277;47.316;18.908;2022-09-17T05:37:02;14.00;78.15
70708;SHT30;58277;47.316;18.908;2022-09-17T05:39:25;13.98;78.13
70708;SHT30;58277;47.316;18.908;2022-09-17T05:41:47;13.94;78.55
70708;SHT30;58277;47.316;18.908;2022-09-17T05:44:10;14.05;77.92
70708;SHT30;58277;47.316;18.908;2022-09-17T05:46:39;14.09;78.27
70708;SHT30;58277;47.316;18.908;2022-09-17T05:49:01;14.12;77.79
70708;SHT30;58277;47.316;18.908;2022-09-17T05:51:24;14.06;77.60
70708;SHT30;58277;47.316;18.908;2022-09-17T05:53:53;14.09;78.57
70708;SHT30;58277;47.316;18.908;2022-09-17T05:56:17;14.05;78.53
70708;SHT30;58277;47.316;18.908;2022-09-17T05:58:40;13.98;77.69
70708;SHT30;58277;47.316;18.908;2022-09-17T06:01:03;14.02;78.22
70708;SHT30;58277;47.316;18.908;2022-09-17T06:03:26;14.18;78.18
70708;SHT30;58277;47.316;18.908;2022-09-17T06:05:53;14.26;77.91
70708;SHT30;58277;47.316;18.908;2022-09-17T06:08:16;14.30;77.88
70708;SHT30;58277;47.316;18.908;2022-09-17T06:10:39;14.37;76.85
70708;SHT30;58277;47.316;18.908;2022-09-17T06:13:02;14.43;76.23
70708;SHT30;58277;47.316;18.908;2022-09-17T06:15:26;14.44;76.64
70708;SHT30;58277;47.316;18.908;2022-09-17T06:17:49;14.28;76.94
70708;SHT30;58277;47.316;18.908;2022-09-17T06:20:12;14.29;76.98
70708;SHT30;58277;47.316;18.908;2022-09-17T06:22:34;14.34;77.20
70708;SHT30;58277;47.316;18.908;2022-09-17T06:24:57;14.46;76.86
70708;SHT30;58277;47.316;18.908;2022-09-17T06:27:21;14.57;77.00
70708;SHT30;58277;47.316;18.908;2022-09-17T06:29:50;14.63;76.05
70708;SHT30;58277;47.316;18.908;2022-09-17T06:32:13;14.40;76.25
70708;SHT30;58277;47.316;18.908;2022-09-17T06:34:38;14.36;76.51
70708;SHT30;58277;47.316;18.908;2022-09-17T06:37:00;14.34;76.64
70708;SHT30;58277;47.316;18.908;2022-09-17T06:39:23;14.29;77.63
70708;SHT30;58277;47.316;18.908;2022-09-17T06:41:46;14.41;77.05
70708;SHT30;58277;47.316;18.908;2022-09-17T06:44:10;14.40;77.65
70708;SHT30;58277;47.316;18.908;2022-09-17T06:46:32;14.34;76.49
70708;SHT30;58277;47.316;18.908;2022-09-17T06:48:55;14.19;76.90
70708;SHT30;58277;47.316;18.908;2022-09-17T06:51:17;14.19;78.01
70708;SHT30;58277;47.316;18.908;2022-09-17T06:53:40;14.11;76.76
70708;SHT30;58277;47.316;18.908;2022-09-17T06:56:03;14.20;77.66
70708;SHT30;58277;47.316;18.908;2022-09-17T06:58:29;14.19;76.69
70708;SHT30;58277;47.316;18.908;2022-09-17T07:00:51;14.20;77.36
70708;SHT30;58277;47.316;18.908;2022-09-17T07:03:14;14.12;76.92
70708;SHT30;58277;47.316;18.908;2022-09-17T07:05:43;14.09;75.69
70708;SHT30;58277;47.316;18.908;2022-09-17T07:08:06;14.12;76.23
70708;SHT30;58277;47.316;18.908;2022-09-17T07:10:29;14.05;76.13
70708;SHT30;58277;47.316;18.908;2022-09-17T07:12:52;14.09;75.51
70708;SHT30;58277;47.316;18.908;2022-09-17T07:15:16;14.04;75.59
70708;SHT30;58277;47.316;18.908;2022-09-17T07:17:38;14.09;75.73
70708;SHT30;58277;47.316;18.908;2022-09-17T07:20:03;14.20;75.41
70708;SHT30;58277;47.316;18.908;2022-09-17T07:22:25;14.25;74.89
70708;SHT30;58277;47.316;18.908;2022-09-17T07:24:48;14.28;75.11
70708;SHT30;58277;47.316;18.908;2022-09-17T07:27:11;14.50;74.68
70708;SHT30;58277;47.316;18.908;2022-09-17T07:29:34;14.63;74.42
70708;SHT30;58277;47.316;18.908;2022-09-17T07:31:56;14.68;73.33
70708;SHT30;58277;47.316;18.908;2022-09-17T07:34:21;14.80;73.32
70708;SHT30;58277;47.316;18.908;2022-09-17T07:36:43;14.89;73.10
70708;SHT30;58277;47.316;18.908;2022-09-17T07:39:06;15.04;72.63
70708;SHT30;58277;47.316;18.908;2022-09-17T07:41:29;15.08;71.74
70708;SHT30;58277;47.316;18.908;2022-09-17T07:43:52;15.08;72.16
70708;SHT30;58277;47.316;18.908;2022-09-17T07:46:19;15.28;72.05
70708;SHT30;58277;47.316;18.908;2022-09-17T07:48:42;15.29;71.98
70708;SHT30;58277;47.316;18.908;2022-09-17T07:51:05;15.33;71.73
70708;SHT30;58277;47.316;18.908;2022-09-17T07:53:28;15.39;70.51
70708;SHT30;58277;47.316;18.908;2022-09-17T07:55:55;15.42;71.06
70708;SHT30;58277;47.316;18.908;2022-09-17T07:58:19;15.46;71.13
70708;SHT30;58277;47.316;18.908;2022-09-17T08:00:42;15.14;70.50
70708;SHT30;58277;47.316;18.908;2022-09-17T08:03:05;15.32;70.50
70708;SHT30;58277;47.316;18.908;2022-09-17T08:05:28;15.29;70.82
70708;SHT30;58277;47.316;18.908;2022-09-17T08:07:51;15.25;69.87
70708;SHT30;58277;47.316;18.908;2022-09-17T08:10:20;15.22;70.91
70708;SHT30;58277;47.316;18.908;2022-09-17T08:12:43;15.29;71.42
70708;SHT30;58277;47.316;18.908;2022-09-17T08:15:06;15.25;70.87
70708;SHT30;58277;47.316;18.908;2022-09-17T08:17:29;15.39;70.91
70708;SHT30;58277;47.316;18.908;2022-09-17T08:19:52;15.45;71.00
70708;SHT30;58277;47.316;18.908;2022-09-17T08:22:15;15.53;70.32
70708;SHT30;58277;47.316;18.908;2022-09-17T08:24:38;15.56;71.02
70708;SHT30;58277;47.316;18.908;2022-09-17T08:27:01;15.76;69.97
70708;SHT30;58277;47.316;18.908;2022-09-17T08:29:24;15.81;69.07
70708;SHT30;58277;47.316;18.908;2022-09-17T08:31:46;15.66;69.22
70708;SHT30;58277;47.316;18.908;2022-09-17T08:34:09;15.79;69.28
70708;SHT30;58277;47.316;18.908;2022-09-17T08:36:32;15.77;69.62
70708;SHT30;58277;47.316;18.908;2022-09-17T08:38:55;15.86;68.85
70708;SHT30;58277;47.316;18.908;2022-09-17T08:46:19;15.90;67.93
70708;SHT30;58277;47.316;18.908;2022-09-17T08:49:06;15.86;68.05
70708;SHT30;58277;47.316;18.908;2022-09-17T08:54:32;16.11;67.87
70708;SHT30;58277;47.316;18.908;2022-09-17T08:57:25;16.12;67.81
70708;SHT30;58277;47.316;18.908;2022-09-17T09:00:00;15.98;67.70
70708;SHT30;58277;47.316;18.908;2022-09-17T09:02:29;15.91;67.86
70708;SHT30;58277;47.316;18.908;2022-09-17T09:05:00;15.87;68.39
70708;SHT30;58277;47.316;18.908;2022-09-17T09:07:28;15.86;68.53
70708;SHT30;58277;47.316;18.908;2022-09-17T09:12:44;16.01;69.49
70708;SHT30;58277;47.316;18.908;2022-09-17T09:15:27;16.01;68.79
70708;SHT30;58277;47.316;18.908;2022-09-17T09:17:53;16.08;68.24
70708;SHT30;58277;47.316;18.908;2022-09-17T09:20:29;16.07;68.77
70708;SHT30;58277;47.316;18.908;2022-09-17T09:22:53;16.01;68.84
70708;SHT30;58277;47.316;18.908;2022-09-17T09:25:25;16.10;69.18
70708;SHT30;58277;47.316;18.908;2022-09-17T09:28:04;16.17;67.91
70708;SHT30;58277;47.316;18.908;2022-09-17T09:33:14;16.26;68.14
70708;SHT30;58277;47.316;18.908;2022-09-17T09:35:41;16.33;67.30
70708;SHT30;58277;47.316;18.908;2022-09-17T09:43:22;16.19;67.32
70708;SHT30;58277;47.316;18.908;2022-09-17T09:59:18;16.36;68.02
70708;SHT30;58277;47.316;18.908;2022-09-17T10:01:42;16.12;69.13
70708;SHT30;58277;47.316;18.908;2022-09-17T10:04:21;16.08;67.41
70708;SHT30;58277;47.316;18.908;2022-09-17T10:06:45;16.10;68.22
70708;SHT30;58277;47.316;18.908;2022-09-17T10:09:10;15.97;66.91
70708;SHT30;58277;47.316;18.908;2022-09-17T10:11:33;15.98;65.83
70708;SHT30;58277;47.316;18.908;2022-09-17T10:14:21;16.04;66.53
70708;SHT30;58277;47.316;18.908;2022-09-17T10:16:45;16.04;66.93
70708;SHT30;58277;47.316;18.908;2022-09-17T10:19:11;15.94;65.64
70708;SHT30;58277;47.316;18.908;2022-09-17T10:21:39;16.01;65.63
70708;SHT30;58277;47.316;18.908;2022-09-17T10:24:08;16.04;65.75
70708;SHT30;58277;47.316;18.908;2022-09-17T10:26:35;16.18;66.44
70708;SHT30;58277;47.316;18.908;2022-09-17T10:29:03;16.26;65.74
70708;SHT30;58277;47.316;18.908;2022-09-17T10:31:45;16.19;64.70
70708;SHT30;58277;47.316;18.908;2022-09-17T10:34:18;16.14;66.02
70708;SHT30;58277;47.316;18.908;2022-09-17T10:36:43;16.22;66.61
70708;SHT30;58277;47.316;18.908;2022-09-17T10:39:36;16.11;65.82
70708;SHT30;58277;47.316;18.908;2022-09-17T10:42:16;16.15;65.42
70708;SHT30;58277;47.316;18.908;2022-09-17T10:47:46;15.96;63.81
70708;SHT30;58277;47.316;18.908;2022-09-17T10:50:19;15.93;63.68
70708;SHT30;58277;47.316;18.908;2022-09-17T10:52:54;15.89;64.44
70708;SHT30;58277;47.316;18.908;2022-09-17T10:55:37;16.12;64.19
70708;SHT30;58277;47.316;18.908;2022-09-17T11:03:40;15.86;63.90
70708;SHT30;58277;47.316;18.908;2022-09-17T11:09:29;15.69;65.12
70708;SHT30;58277;47.316;18.908;2022-09-17T11:20:19;15.50;64.67
70708;SHT30;58277;47.316;18.908;2022-09-17T11:25:50;15.53;64.60
70708;SHT30;58277;47.316;18.908;2022-09-17T11:36:08;15.59;63.28
70708;SHT30;58277;47.316;18.908;2022-09-17T11:38:48;15.53;64.11
70708;SHT30;58277;47.316;18.908;2022-09-17T11:41:21;15.60;64.16
70708;SHT30;58277;47.316;18.908;2022-09-17T11:46:24;15.52;64.84
70708;SHT30;58277;47.316;18.908;2022-09-17T11:49:14;15.60;64.51
70708;SHT30;58277;47.316;18.908;2022-09-17T11:51:46;15.69;63.76
70708;SHT30;58277;47.316;18.908;2022-09-17T11:54:23;15.77;63.77
70708;SHT30;58277;47.316;18.908;2022-09-17T11:56:50;15.74;63.88
70708;SHT30;58277;47.316;18.908;2022-09-17T12:01:48;15.69;63.33
70708;SHT30;58277;47.316;18.908;2022-09-17T12:07:16;15.64;63.89
70708;SHT30;58277;47.316;18.908;2022-09-17T12:09:44;15.59;63.13
70708;SHT30;58277;47.316;18.908;2022-09-17T12:12:18;15.53;62.93
70708;SHT30;58277;47.316;18.908;2022-09-17T12:15:14;15.43;62.92
70708;SHT30;58277;47.316;18.908;2022-09-17T12:18:02;15.39;62.51
70708;SHT30;58277;47.316;18.908;2022-09-17T12:20:54;15.29;62.58
70708;SHT30;58277;47.316;18.908;2022-09-17T12:23:49;15.29;62.52
70708;SHT30;58277;47.316;18.908;2022-09-17T12:40:17;15.83;61.13
70708;SHT30;58277;47.316;18.908;2022-09-17T12:45:28;15.86;60.03
70708;SHT30;58277;47.316;18.908;2022-09-17T12:50:55;15.89;60.63
70708;SHT30;58277;47.316;18.908;2022-09-17T12:53:28;15.90;61.48
70708;SHT30;58277;47.316;18.908;2022-09-17T12:56:14;15.86;61.18
70708;SHT30;58277;47.316;18.908;2022-09-17T12:58:55;15.66;61.06
70708;SHT30;58277;47.316;18.908;2022-09-17T13:01:23;15.73;61.18
70708;SHT30;58277;47.316;18.908;2022-09-17T13:03:55;15.57;61.67
70708;SHT30;58277;47.316;18.908;2022-09-17T13:06:30;15.56;61.74
70708;SHT30;58277;47.316;18.908;2022-09-17T13:17:27;15.28;61.59
70708;SHT30;58277;47.316;18.908;2022-09-17T13:22:45;15.08;62.50
70708;SHT30;58277;47.316;18.908;2022-09-17T13:25:12;15.15;62.75
70708;SHT30;58277;47.316;18.908;2022-09-17T13:27:36;15.18;62.42
70708;SHT30;58277;47.316;18.908;2022-09-17T13:30:00;15.06;63.28
70708;SHT30;58277;47.316;18.908;2022-09-17T13:34:55;15.01;63.64
70708;SHT30;58277;47.316;18.908;2022-09-17T13:37:18;15.01;63.40
70708;SHT30;58277;47.316;18.908;2022-09-17T13:39:46;14.91;62.82
70708;SHT30;58277;47.316;18.908;2022-09-17T13:45:04;14.95;63.86
70708;SHT30;58277;47.316;18.908;2022-09-17T13:47:35;14.94;63.51
70708;SHT30;58277;47.316;18.908;2022-09-17T13:52:38;14.88;63.25
70708;SHT30;58277;47.316;18.908;2022-09-17T13:55:03;14.85;62.15
70708;SHT30;58277;47.316;18.908;2022-09-17T13:57:28;14.91;62.75
70708;SHT30;58277;47.316;18.908;2022-09-17T13:59:55;14.83;62.55
70708;SHT30;58277;47.316;18.908;2022-09-17T14:02:25;14.81;62.53
70708;SHT30;58277;47.316;18.908;2022-09-17T14:05:28;14.80;62.47
70708;SHT30;58277;47.316;18.908;2022-09-17T14:08:08;14.83;62.55
70708;SHT30;58277;47.316;18.908;2022-09-17T14:10:39;14.68;62.57
70708;SHT30;58277;47.316;18.908;2022-09-17T14:13:24;14.61;62.89
70708;SHT30;58277;47.316;18.908;2022-09-17T14:18:41;14.51;62.99
70708;SHT30;58277;47.316;18.908;2022-09-17T14:23:41;14.47;63.70
70708;SHT30;58277;47.316;18.908;2022-09-17T14:26:08;14.32;63.43
70708;SHT30;58277;47.316;18.908;2022-09-17T14:28:47;14.28;63.52
70708;SHT30;58277;47.316;18.908;2022-09-17T14:31:17;14.22;63.41
70708;SHT30;58277;47.316;18.908;2022-09-17T14:33:42;14.20;63.50
70708;SHT30;58277;47.316;18.908;2022-09-17T14:36:11;14.16;63.31
70708;SHT30;58277;47.316;18.908;2022-09-17T14:38:40;14.11;63.16
70708;SHT30;58277;47.316;18.908;2022-09-17T14:43:55;14.09;63.85
70708;SHT30;58277;47.316;18.908;2022-09-17T14:46:41;14.09;63.26
70708;SHT30;58277;47.316;18.908;2022-09-17T14:49:20;14.06;63.80
70708;SHT30;58277;47.316;18.908;2022-09-17T14:51:44;14.05;63.77
70708;SHT30;58277;47.316;18.908;2022-09-17T14:54:13;14.08;63.35
70708;SHT30;58277;47.316;18.908;2022-09-17T14:57:29;14.15;63.68
70708;SHT30;58277;47.316;18.908;2022-09-17T14:59:50;14.11;64.00
70708;SHT30;58277;47.316;18.908;2022-09-17T15:02:38;14.12;64.20
70708;SHT30;58277;47.316;18.908;2022-09-17T15:05:26;14.15;64.44
70708;SHT30;58277;47.316;18.908;2022-09-17T15:07:51;14.18;64.41
70708;SHT30;58277;47.316;18.908;2022-09-17T15:10:19;14.13;64.04
70708;SHT30;58277;47.316;18.908;2022-09-17T15:12:44;14.08;63.94
70708;SHT30;58277;47.316;18.908;2022-09-17T15:15:16;14.18;64.19
70708;SHT30;58277;47.316;18.908;2022-09-17T15:17:40;14.18;64.77
70708;SHT30;58277;47.316;18.908;2022-09-17T15:20:04;14.22;65.01
70708;SHT30;58277;47.316;18.908;2022-09-17T15:22:33;14.28;64.32
70708;SHT30;58277;47.316;18.908;2022-09-17T15:25:08;14.20;65.51
70708;SHT30;58277;47.316;18.908;2022-09-17T15:27:38;14.26;65.02
70708;SHT30;58277;47.316;18.908;2022-09-17T15:30:14;14.16;66.13
70708;SHT30;58277;47.316;18.908;2022-09-17T15:32:39;14.09;65.81
70708;SHT30;58277;47.316;18.908;2022-09-17T15:35:17;14.06;66.37
70708;SHT30;58277;47.316;18.908;2022-09-17T15:37:45;14.09;65.62
70708;SHT30;58277;47.316;18.908;2022-09-17T15:43:24;13.98;66.04
70708;SHT30;58277;47.316;18.908;2022-09-17T15:45:45;13.88;67.51
70708;SHT30;58277;47.316;18.908;2022-09-17T15:50:54;13.78;67.97
70708;SHT30;58277;47.316;18.908;2022-09-17T15:53:28;13.81;68.07
70708;SHT30;58277;47.316;18.908;2022-09-17T15:56:04;13.79;67.44
70708;SHT30;58277;47.316;18.908;2022-09-17T15:58:35;13.78;67.48
70708;SHT30;58277;47.316;18.908;2022-09-17T16:06:00;13.75;67.80
70708;SHT30;58277;47.316;18.908;2022-09-17T16:08:32;13.81;67.88
70708;SHT30;58277;47.316;18.908;2022-09-17T16:10:55;13.78;67.52
70708;SHT30;58277;47.316;18.908;2022-09-17T16:13:18;13.81;67.74
70708;SHT30;58277;47.316;18.908;2022-09-17T16:15:41;13.73;68.33
70708;SHT30;58277;47.316;18.908;2022-09-17T16:18:04;13.75;68.19
70708;SHT30;58277;47.316;18.908;2022-09-17T16:20:27;13.81;67.95
70708;SHT30;58277;47.316;18.908;2022-09-17T16:22:51;13.88;68.40
70708;SHT30;58277;47.316;18.908;2022-09-17T16:25:19;13.86;68.46
70708;SHT30;58277;47.316;18.908;2022-09-17T16:30:17;13.78;68.06
70708;SHT30;58277;47.316;18.908;2022-09-17T16:32:39;13.71;68.75
70708;SHT30;58277;47.316;18.908;2022-09-17T16:35:02;13.74;69.24
70708;SHT30;58277;47.316;18.908;2022-09-17T16:37:26;13.74;69.15
70708;SHT30;58277;47.316;18.908;2022-09-17T16:39:49;13.68;68.66
70708;SHT30;58277;47.316;18.908;2022-09-17T16:42:13;13.68;68.44
70708;SHT30;58277;47.316;18.908;2022-09-17T16:44:36;13.58;69.50
70708;SHT30;58277;47.316;18.908;2022-09-17T16:46:58;13.60;69.21
70708;SHT30;58277;47.316;18.908;2022-09-17T16:49:22;13.60;69.31
70708;SHT30;58277;47.316;18.908;2022-09-17T16:51:45;13.60;69.72
70708;SHT30;58277;47.316;18.908;2022-09-17T16:54:07;13.57;69.43
70708;SHT30;58277;47.316;18.908;2022-09-17T16:56:30;13.68;70.69
70708;SHT30;58277;47.316;18.908;2022-09-17T16:58:54;13.67;70.15
70708;SHT30;58277;47.316;18.908;2022-09-17T17:01:17;13.63;70.27
70708;SHT30;58277;47.316;18.908;2022-09-17T17:03:40;13.71;70.17
70708;SHT30;58277;47.316;18.908;2022-09-17T17:06:03;13.75;70.53
70708;SHT30;58277;47.316;18.908;2022-09-17T17:08:26;13.65;70.47
70708;SHT30;58277;47.316;18.908;2022-09-17T17:10:49;13.58;71.38
70708;SHT30;58277;47.316;18.908;2022-09-17T17:13:11;13.48;71.46
70708;SHT30;58277;47.316;18.908;2022-09-17T17:15:34;13.43;70.86
70708;SHT30;58277;47.316;18.908;2022-09-17T17:17:57;13.40;71.47
70708;SHT30;58277;47.316;18.908;2022-09-17T17:20:19;13.37;71.18
70708;SHT30;58277;47.316;18.908;2022-09-17T17:22:42;13.43;71.46
70708;SHT30;58277;47.316;18.908;2022-09-17T17:25:06;13.33;70.55
70708;SHT30;58277;47.316;18.908;2022-09-17T17:27:29;13.36;71.23
70708;SHT30;58277;47.316;18.908;2022-09-17T17:29:56;13.27;71.42
70708;SHT30;58277;47.316;18.908;2022-09-17T17:32:18;13.40;71.76
70708;SHT30;58277;47.316;18.908;2022-09-17T17:34:41;13.48;71.89
70708;SHT30;58277;47.316;18.908;2022-09-17T17:37:04;13.51;71.70
70708;SHT30;58277;47.316;18.908;2022-09-17T17:39:27;13.46;72.16
70708;SHT30;58277;47.316;18.908;2022-09-17T17:41:50;13.43;72.67
70708;SHT30;58277;47.316;18.908;2022-09-17T17:44:15;13.37;73.39
70708;SHT30;58277;47.316;18.908;2022-09-17T17:46:38;13.30;72.76
70708;SHT30;58277;47.316;18.908;2022-09-17T17:49:01;13.27;73.06
70708;SHT30;58277;47.316;18.908;2022-09-17T17:51:24;13.32;73.78
70708;SHT30;58277;47.316;18.908;2022-09-17T17:53:48;13.37;72.36
70708;SHT30;58277;47.316;18.908;2022-09-17T17:56:12;13.33;72.34
70708;SHT30;58277;47.316;18.908;2022-09-17T17:58:35;13.36;71.96
70708;SHT30;58277;47.316;18.908;2022-09-17T18:00:59;13.37;72.04
70708;SHT30;58277;47.316;18.908;2022-09-17T18:03:22;13.27;72.03